Share

Alliance, NE

Alliance Municipal (KAIA) Elev 3930 ft | 42.06 °N, 102.80 °W | Change Station

Current weather conditions updated 28 minutes ago

Clear
Clear
54 °F
Feels Like 54 °F
N
13
Wind Variable Wind from ENE
Sunrise 6:04 AM
Sunset 7:36 PM
Moon Waning Gibbous

Today is forecast to be Much Cooler than yesterday.

Pressure 30.01 in
Visibility 10.0 miles
Clouds Clear
Dew Point 21 °F
Humidity 28%
Rainfall 0.00 in
Snow Depth Not available.
UV 8 out of 16
Pollen 10.70 out of 12
Air Quality Not available.
Flu Activity Sporadic
METAR KAIA 191653Z AUTO 06011KT 10SM CLR 12/M06 A3007 RMK AO2 SLP160 T01221061

More Conditions Fewer Conditions

Pressure 30.01 in
Visibility 10.0 miles
Clouds Clear
Dew Point 21 °F
Humidity 28%
Rainfall 0.00 in
Snow Depth Not available.
UV 8 out of 16
Pollen 10.70 out of 12
Air Quality Not available.
Flu Activity Sporadic
METAR KAIA 191653Z AUTO 06011KT 10SM CLR 12/M06 A3007 RMK AO2 SLP160 T01221061

More Conditions Fewer Conditions

10-Day Weather Forecast

Almanac

Astronomy

Apr. 19, 2014 Rise Set
Actual Time 6:04 AM MDT 7:36 PM MDT
Civil Twilight 5:35 AM MDT 8:06 PM MDT
Nautical Twilight 4:59 AM MDT 8:41 PM MDT
Astronomical Twilight 4:21 AM MDT 9:19 PM MDT
Moon No Moon Rise 9:22 AM MDT
Length of Visible Light 14h 31m
Length of Day
13h 32m
Tomorrow will be 2m 39s longer.
Waning Gibbous, 78% of the Moon is Illuminated
Today
Waning Gibbous
Apr 22
Last Quarter
Apr 29
New
May 6
First Quarter
May 14
Full

Today's Extremes

State Highs State Lows

Community

  • A Glorious Morning
    A Glorious Morning
  • Tender Rays Of Hope
    Tender Rays Of Hope
  • Bleeding Hearts
    Bleeding Hearts
  • Sunset Silhouettes
    Sunset Silhouettes
  • FL sunset Perico Isle
    FL sunset Perico Isle

WunderPhotos

Upload Photos

1,702,810 photos uploaded!

WunderBlogs® & News

Nearby

Snow Depth

Station Depth Elevation
No new snow has been reported.

Coastal Water Temperatures

Place Temperature
No Stations Reporting

Earthquake Activity

City Distance Mag. Time & Date
No recent earthquake activity has been reported nearby.
Minimum magnitude displayed is 2.5.

Nearby Weather Stations

Station Location Temp. Dew Point Humidity Wind Precip. Elev Updated Type
Wayne Rd., Alliance, NE 53.2 °F 24 °F 32% East  at  10.0 mph 0.00 in / hr 4091 ft 11:17 AM MDT Normal
Panhandle Coop/Box Butte Co, Alliance, NE 52.8 °F 21 °F 29% NNW  at  7.0 mph 0.00 in / hr 4140 ft 11:09 AM MDT Normal

Show More Stations Show Fewer Stations

What do you think?

We're not finished. Please let us know what you like, what you don't like, and what you are still missing.